Hondo, Texas
Current Conditions -  °F | °C
As of 5:51 PM on Thursday 18 Dec 2014 (Local Time) from KHDO Reporting Station
Clear Clear  
Wind Chill: 18°   Ceiling: Unl
Heat Index: 18°   Visibility: 10mi
Dew Point: 15°   Wind: 10mph
Humidity: 81%   Direction: 110°ESE
Pressure: 30.02"   Gusts: NA
Location:  29.35°N, 99.14°W
Report Text: KHDO 182351Z AUTO 11009KT 10SM CLR 18/15 A3002 RMK AO2 SLP157 T01830150 10217 20183 55002
Loading
Personal Weather Stations






























Interactive Weather Map New forecast layout! Learn more

10-Day Weather Forecast

Advertisements
Track Severe Weather on mobile